createdAt,value
2018-04-18T00:00:34.420Z,90.72
2018-04-18T00:03:02.201Z,83.90
2018-04-18T00:05:30.785Z,83.25
2018-04-18T00:07:59.307Z,88.70
2018-04-18T00:10:27.054Z,83.15
2018-04-18T00:12:54.920Z,84.47
2018-04-18T00:15:22.677Z,94.50
2018-04-18T00:17:50.447Z,86.72
2018-04-18T00:20:18.264Z,81.85
2018-04-18T00:22:46.048Z,95.87
2018-04-18T00:25:14.568Z,81.72
2018-04-18T00:27:42.375Z,88.45
2018-04-18T00:30:10.128Z,77.07
2018-04-18T00:32:37.916Z,87.70
2018-04-18T00:35:06.497Z,97.50
2018-04-18T00:37:35.028Z,90.60
2018-04-18T00:40:02.808Z,88.87
2018-04-18T00:42:30.610Z,94.00
2018-04-18T00:44:58.365Z,86.28
2018-04-18T00:47:26.877Z,94.30
2018-04-18T00:49:54.681Z,72.20
2018-04-18T00:52:22.436Z,90.07
2018-04-18T00:54:50.195Z,78.20
2018-04-18T00:57:18.008Z,81.18
2018-04-18T00:59:45.779Z,89.03
2018-04-18T01:02:13.529Z,84.10
2018-04-18T01:04:41.406Z,87.18
2018-04-18T01:07:09.187Z,88.62
2018-04-18T01:09:36.952Z,94.62
2018-04-18T01:12:04.790Z,91.47
2018-04-18T01:14:32.554Z,78.97
2018-04-18T01:17:00.314Z,88.40
2018-04-18T01:19:28.200Z,96.20
2018-04-18T01:21:55.971Z,87.78
2018-04-18T01:24:23.725Z,91.43
2018-04-18T01:26:51.549Z,92.05
2018-04-18T01:29:20.077Z,86.70
2018-04-18T01:31:47.836Z,80.90
2018-04-18T01:34:15.649Z,83.28
2018-04-18T01:36:44.191Z,89.85
2018-04-18T01:39:11.947Z,94.95
2018-04-18T01:41:39.753Z,101.40
2018-04-18T01:44:08.285Z,93.37
2018-04-18T01:46:36.051Z,99.05
2018-04-18T01:49:15.868Z,93.10
2018-04-18T01:51:43.617Z,101.80
2018-04-18T01:54:11.379Z,95.82
2018-04-18T01:56:39.189Z,91.43
2018-04-18T01:59:06.950Z,81.03
2018-04-18T02:01:34.711Z,99.45
2018-04-18T02:04:02.525Z,93.80
2018-04-18T02:06:30.277Z,100.05
2018-04-18T02:08:58.818Z,95.72
2018-04-18T02:11:26.661Z,88.62
2018-04-18T02:13:55.192Z,91.12
2018-04-18T02:16:22.978Z,86.03
2018-04-18T02:18:50.788Z,90.07
2018-04-18T02:21:18.549Z,88.55
2018-04-18T02:23:46.314Z,92.95
2018-04-18T02:26:14.129Z,97.93
2018-04-18T02:28:41.905Z,85.90
2018-04-18T02:31:09.669Z,81.37
2018-04-18T02:33:37.485Z,96.37
2018-04-18T02:36:06.022Z,99.85
2018-04-18T02:38:33.790Z,98.18
2018-04-18T02:41:01.609Z,94.80
2018-04-18T02:43:29.362Z,98.47
2018-04-18T02:45:57.881Z,89.25
2018-04-18T02:48:25.708Z,94.65
2018-04-18T02:50:54.266Z,98.07
2018-04-18T02:53:22.089Z,91.50
2018-04-18T02:55:49.910Z,91.22
2018-04-18T02:58:18.427Z,91.87
2018-04-18T03:00:46.172Z,87.65
2018-04-18T03:03:13.998Z,84.95
2018-04-18T03:05:41.757Z,89.30
2018-04-18T03:08:09.535Z,94.20
2018-04-18T03:10:38.267Z,88.87
2018-04-18T03:13:06.021Z,95.87
2018-04-18T03:15:33.787Z,81.20
2018-04-18T03:18:01.598Z,81.53
2018-04-18T03:20:30.138Z,85.55
2018-04-18T03:22:57.899Z,92.37
2018-04-18T03:25:25.707Z,89.78
2018-04-18T03:27:54.237Z,91.03
2018-04-18T03:30:21.985Z,94.10
2018-04-18T03:32:49.817Z,83.60
2018-04-18T03:35:18.341Z,101.85
2018-04-18T03:37:46.096Z,92.55
2018-04-18T03:40:13.949Z,99.37
2018-04-18T03:42:41.701Z,109.30
2018-04-18T03:45:09.461Z,94.95
2018-04-18T03:47:37.280Z,96.70
2018-04-18T03:50:05.039Z,101.20
2018-04-18T03:52:32.809Z,87.75
2018-04-18T03:55:00.613Z,99.30
2018-04-18T03:57:28.398Z,88.22
2018-04-18T03:59:56.170Z,105.57
2018-04-18T04:02:24.877Z,107.82
2018-04-18T04:04:52.634Z,84.95
2018-04-18T04:07:20.426Z,95.07
2018-04-18T04:09:49.029Z,93.10
2018-04-18T04:12:16.786Z,93.25
2018-04-18T04:14:44.548Z,89.22
2018-04-18T04:17:24.097Z,89.00
2018-04-18T04:20:03.702Z,88.78
2018-04-18T04:22:43.967Z,98.60
2018-04-18T04:25:12.512Z,90.15
2018-04-18T04:27:40.263Z,85.18
2018-04-18T04:30:08.073Z,91.60
2018-04-18T04:32:36.595Z,83.32
2018-04-18T04:35:04.379Z,88.30
2018-04-18T04:37:32.221Z,77.97
2018-04-18T04:39:59.994Z,68.20
2018-04-18T04:42:27.744Z,78.65
2018-04-18T04:44:55.659Z,67.18
2018-04-18T04:47:24.186Z,77.65
2018-04-18T04:49:51.978Z,74.35
2018-04-18T04:52:19.798Z,74.43
2018-04-18T04:54:47.664Z,77.10
2018-04-18T04:57:15.441Z,74.85
2018-04-18T04:59:44.025Z,72.03
2018-04-18T05:02:11.802Z,68.87
2018-04-18T05:04:39.561Z,62.78
2018-04-18T05:07:07.401Z,56.85
2018-04-18T05:09:35.178Z,60.90
2018-04-18T05:12:03.695Z,52.00
2018-04-18T05:14:32.284Z,52.97
2018-04-18T05:17:00.805Z,46.72
2018-04-18T05:19:28.576Z,41.58
2018-04-18T05:21:56.385Z,47.05
2018-04-18T05:24:24.936Z,39.40
2018-04-18T05:26:52.712Z,46.10
2018-04-18T05:29:20.539Z,42.20
2018-04-18T05:31:48.307Z,38.78
2018-04-18T05:34:16.082Z,35.45
2018-04-18T05:36:44.557Z,36.42
2018-04-18T05:39:12.452Z,35.70
2018-04-18T05:41:40.207Z,35.13
2018-04-18T05:44:08.043Z,33.00
2018-04-18T05:46:35.797Z,32.58
2018-04-18T05:49:03.566Z,31.92
2018-04-18T05:51:31.400Z,36.08
2018-04-18T05:53:59.174Z,31.85
2018-04-18T05:56:27.000Z,34.40
2018-04-18T05:58:55.615Z,31.55
2018-04-18T06:01:23.372Z,32.28
2018-04-18T06:03:51.162Z,30.85
2018-04-18T06:06:19.764Z,30.95
2018-04-18T06:08:47.536Z,32.25
2018-04-18T06:11:16.089Z,32.50
2018-04-18T06:13:43.915Z,31.12
2018-04-18T06:16:11.689Z,30.65
2018-04-18T06:18:39.453Z,31.55
2018-04-18T06:21:07.273Z,30.33
2018-04-18T06:23:35.801Z,31.70
2018-04-18T06:26:03.614Z,31.67
2018-04-18T06:28:32.198Z,33.13
2018-04-18T06:31:00.728Z,32.20
2018-04-18T06:33:28.493Z,32.38
2018-04-18T06:35:56.341Z,31.37
2018-04-18T06:38:24.124Z,28.73
2018-04-18T06:40:51.935Z,30.37
2018-04-18T06:43:20.546Z,30.08
2018-04-18T06:45:48.367Z,30.08
2018-04-18T06:48:16.917Z,30.92
2018-04-18T06:50:44.744Z,30.98
2018-04-18T06:53:12.512Z,27.43
2018-04-18T06:55:40.297Z,28.80
2018-04-18T06:58:08.134Z,28.67
2018-04-18T07:00:35.923Z,29.10
2018-04-18T07:03:03.703Z,29.20
2018-04-18T07:05:31.544Z,37.00
2018-04-18T07:07:59.313Z,32.23
2018-04-18T07:10:27.089Z,28.77
2018-04-18T07:12:54.929Z,32.97
2018-04-18T07:15:22.706Z,31.00
2018-04-18T07:17:50.494Z,33.00
2018-04-18T07:20:19.102Z,27.73
2018-04-18T07:22:46.892Z,26.73
2018-04-18T07:25:14.681Z,27.90
2018-04-18T07:27:42.588Z,27.07
2018-04-18T07:30:10.386Z,27.23
2018-04-18T07:32:38.178Z,23.87
2018-04-18T07:35:06.032Z,22.23
2018-04-18T07:37:33.837Z,22.57
2018-04-18T07:40:01.605Z,21.17
2018-04-18T07:42:29.435Z,21.37
2018-04-18T07:44:57.215Z,19.80
2018-04-18T07:47:25.770Z,19.27
2018-04-18T07:49:53.613Z,19.40
2018-04-18T07:52:21.392Z,19.10
2018-04-18T07:54:49.183Z,23.23
2018-04-18T07:57:17.806Z,18.87
2018-04-18T07:59:45.589Z,15.57
2018-04-18T08:02:13.411Z,17.17
2018-04-18T08:04:41.243Z,17.10
2018-04-18T08:07:09.798Z,17.67
2018-04-18T08:09:37.591Z,22.37
2018-04-18T08:12:06.192Z,17.57
2018-04-18T08:14:33.971Z,14.50
2018-04-18T08:17:01.754Z,16.50
2018-04-18T08:19:29.628Z,13.13
2018-04-18T08:21:57.473Z,11.90
2018-04-18T08:24:26.082Z,12.73
2018-04-18T08:26:53.947Z,13.57
2018-04-18T08:29:21.798Z,12.50
2018-04-18T08:31:49.574Z,11.40
2018-04-18T08:34:17.449Z,10.53
2018-04-18T08:36:45.226Z,12.50
2018-04-18T08:39:13.767Z,9.80
2018-04-18T08:41:41.599Z,9.40
2018-04-18T08:44:09.394Z,9.60
2018-04-18T08:46:37.182Z,9.60
2018-04-18T08:49:05.799Z,11.73
2018-04-18T08:51:33.587Z,11.00
2018-04-18T08:54:01.373Z,8.43
2018-04-18T08:56:29.200Z,11.30
2018-04-18T08:58:56.982Z,12.33
2018-04-18T09:01:24.776Z,12.23
2018-04-18T09:03:53.366Z,10.03
2018-04-18T09:06:21.946Z,8.73
2018-04-18T09:08:50.485Z,7.87
2018-04-18T09:11:18.331Z,13.17
2018-04-18T09:13:46.115Z,8.20
2018-04-18T09:16:13.959Z,7.83
2018-04-18T09:18:41.791Z,10.83
2018-04-18T09:21:09.573Z,13.23
2018-04-18T09:23:37.413Z,7.70
2018-04-18T09:26:06.183Z,9.00
2018-04-18T09:28:34.759Z,8.70
2018-04-18T09:31:02.547Z,8.15
2018-04-18T09:33:31.130Z,7.75
2018-04-18T09:35:58.908Z,8.38
2018-04-18T09:38:26.662Z,8.73
2018-04-18T09:40:54.483Z,11.93
2018-04-18T09:43:22.245Z,6.70
2018-04-18T09:45:50.000Z,6.10
2018-04-18T09:48:17.829Z,7.53
2018-04-18T09:50:45.601Z,8.02
2018-04-18T09:53:13.367Z,8.82
2018-04-18T09:55:41.184Z,7.53
2018-04-18T09:58:09.716Z,7.35
2018-04-18T10:00:43.125Z,9.35
2018-04-18T10:03:15.801Z,12.93
2018-04-18T10:05:43.618Z,10.10
2018-04-18T10:08:11.410Z,7.80
2018-04-18T10:10:39.178Z,8.23
2018-04-18T10:13:07.015Z,7.55
2018-04-18T10:15:34.774Z,7.75
2018-04-18T10:18:02.535Z,7.90
2018-04-18T10:20:30.349Z,8.18
2018-04-18T10:22:58.158Z,8.10
2018-04-18T10:25:25.964Z,9.65
2018-04-18T10:27:53.786Z,7.70
2018-04-18T10:30:21.557Z,13.65
2018-04-18T10:32:49.317Z,9.60
2018-04-18T10:35:17.145Z,8.75
2018-04-18T10:37:45.677Z,9.88
2018-04-18T10:40:13.450Z,10.88
2018-04-18T10:42:41.258Z,6.87
2018-04-18T10:45:09.783Z,5.62
2018-04-18T10:47:37.541Z,8.57
2018-04-18T10:50:05.354Z,8.70
2018-04-18T10:52:33.915Z,10.60
2018-04-18T10:55:01.693Z,7.40
2018-04-18T10:57:30.272Z,11.25
2018-04-18T10:59:58.031Z,10.13
2018-04-18T11:02:26.566Z,8.20
2018-04-18T11:04:54.379Z,6.97
2018-04-18T11:07:22.916Z,9.57
2018-04-18T11:09:50.673Z,8.77
2018-04-18T11:12:18.491Z,7.25
2018-04-18T11:14:47.027Z,6.65
2018-04-18T11:17:14.786Z,8.63
2018-04-18T11:19:42.596Z,8.07
2018-04-18T11:22:11.124Z,7.87
2018-04-18T11:24:38.915Z,7.37
2018-04-18T11:27:06.748Z,5.97
2018-04-18T11:29:34.518Z,10.07
2018-04-18T11:32:02.305Z,6.80
2018-04-18T11:34:30.145Z,4.70
2018-04-18T11:36:57.925Z,5.55
2018-04-18T11:39:27.746Z,6.60
2018-04-18T11:41:58.097Z,11.40
2018-04-18T11:44:32.951Z,5.70
2018-04-18T11:47:04.501Z,7.50
2018-04-18T11:49:35.364Z,6.95
2018-04-18T11:52:08.054Z,7.37
2018-04-18T11:54:40.430Z,6.68
2018-04-18T11:57:17.017Z,8.60
2018-04-18T11:59:46.994Z,7.95
2018-04-18T12:15:10.731Z,6.07
2018-04-18T12:17:48.609Z,7.05
2018-04-18T12:20:27.557Z,5.75
2018-04-18T12:22:55.422Z,8.18
2018-04-18T12:25:23.252Z,6.07
2018-04-18T12:27:51.031Z,6.95
2018-04-18T12:30:18.809Z,5.75
2018-04-18T12:32:46.636Z,4.43
2018-04-18T12:35:14.389Z,5.90
2018-04-18T12:37:42.151Z,10.52
2018-04-18T12:40:09.981Z,6.15
2018-04-18T12:42:37.748Z,7.20
2018-04-18T12:45:06.267Z,9.13
2018-04-18T12:47:34.079Z,5.20
2018-04-18T12:50:02.617Z,9.88
2018-04-18T12:52:30.377Z,6.90
2018-04-18T12:54:58.249Z,5.00
2018-04-18T12:57:26.003Z,5.35
2018-04-18T12:59:53.756Z,6.35
2018-04-18T13:02:21.569Z,4.85
2018-04-18T13:04:49.393Z,6.82
2018-04-18T13:07:17.180Z,5.35
2018-04-18T13:09:44.992Z,4.90
2018-04-18T13:12:12.749Z,8.98
2018-04-18T13:14:40.520Z,6.32
2018-04-18T13:17:08.337Z,5.78
2018-04-18T13:19:36.111Z,4.45
2018-04-18T13:22:03.867Z,5.93
2018-04-18T13:24:31.685Z,6.60
2018-04-18T13:26:59.437Z,7.05
2018-04-18T13:29:27.197Z,10.27
2018-04-18T13:31:55.017Z,6.03
2018-04-18T13:34:22.782Z,4.82
2018-04-18T13:36:51.321Z,6.12
2018-04-18T13:39:19.140Z,7.95
2018-04-18T13:41:47.652Z,5.07
2018-04-18T13:44:15.413Z,7.32
2018-04-18T13:46:43.222Z,6.97
2018-04-18T13:49:10.982Z,4.95
2018-04-18T13:51:38.737Z,4.53
2018-04-18T13:54:06.573Z,6.95
2018-04-18T13:56:35.737Z,6.55
2018-04-18T13:59:03.607Z,6.70
2018-04-18T14:01:31.409Z,5.53
2018-04-18T14:03:59.176Z,8.10
2018-04-18T14:06:26.965Z,7.00
2018-04-18T14:08:55.712Z,5.37
2018-04-18T14:11:23.547Z,5.32
2018-04-18T14:13:51.463Z,7.60
2018-04-18T14:16:19.277Z,4.82
2018-04-18T14:18:47.028Z,5.97
2018-04-18T14:21:15.056Z,6.22
2018-04-18T14:23:43.737Z,7.93
2018-04-18T14:26:11.615Z,5.43
2018-04-18T14:28:39.402Z,5.90
2018-04-18T14:31:07.978Z,6.40
2018-04-18T14:33:36.584Z,5.10
2018-04-18T14:36:04.513Z,5.50
2018-04-18T14:38:32.604Z,5.20
2018-04-18T14:41:00.373Z,4.37
2018-04-18T14:43:28.159Z,4.28
2018-04-18T14:45:55.966Z,5.55
2018-04-18T14:48:23.834Z,6.82
2018-04-18T14:50:52.405Z,5.32
2018-04-18T14:53:21.036Z,4.20
2018-04-18T14:55:48.793Z,5.30
2018-04-18T14:58:16.555Z,5.07
2018-04-18T15:00:44.366Z,4.75
2018-04-18T15:03:12.113Z,5.05
2018-04-18T15:05:39.972Z,4.68
2018-04-18T15:08:07.782Z,7.30
2018-04-18T15:10:36.305Z,7.25
2018-04-18T15:13:04.553Z,6.12
2018-04-18T15:15:32.362Z,6.18
2018-04-18T15:18:00.120Z,4.35
2018-04-18T15:20:27.885Z,4.65
2018-04-18T15:22:55.698Z,9.30
2018-04-18T15:25:23.887Z,8.55
2018-04-18T15:27:51.652Z,5.50
2018-04-18T15:30:19.479Z,7.10
2018-04-18T15:32:48.213Z,5.00
2018-04-18T15:35:15.991Z,5.43
2018-04-18T15:37:43.932Z,4.37
2018-04-18T15:40:11.774Z,4.22
2018-04-18T15:42:39.800Z,3.92
2018-04-18T15:45:08.675Z,4.90
2018-04-18T15:47:37.209Z,5.18
2018-04-18T15:50:05.135Z,9.25
2018-04-18T15:52:33.056Z,5.10
2018-04-18T15:55:01.268Z,5.28
2018-04-18T15:57:29.121Z,6.25
2018-04-18T15:59:57.001Z,6.45
2018-04-18T16:02:24.773Z,6.12
2018-04-18T16:04:52.552Z,6.82
2018-04-18T16:07:21.179Z,7.20
2018-04-18T16:09:48.945Z,5.47
2018-04-18T16:12:16.763Z,6.78
2018-04-18T16:14:44.678Z,4.90
2018-04-18T16:17:12.447Z,5.03
2018-04-18T16:19:41.063Z,5.15
2018-04-18T16:22:08.903Z,5.05
2018-04-18T16:24:36.666Z,4.37
2018-04-18T20:16:58.217Z,22.73
2018-04-18T20:19:25.999Z,22.90
2018-04-18T20:21:53.824Z,36.28
2018-04-18T20:24:21.688Z,24.73
2018-04-18T20:26:49.445Z,20.37
2018-04-18T20:29:17.259Z,24.10
2018-04-18T20:31:45.103Z,26.00
2018-04-18T20:34:12.987Z,22.37
2018-04-18T20:36:42.371Z,25.08
2018-04-18T20:39:11.309Z,26.25
2018-04-18T20:41:39.105Z,23.90
2018-04-18T20:44:06.903Z,23.10
2018-04-18T20:46:34.792Z,22.45
2018-04-18T20:49:03.427Z,26.52
2018-04-18T20:51:31.180Z,23.65
2018-04-18T20:53:59.809Z,24.45
2018-04-18T20:56:28.332Z,28.80
2018-04-18T20:58:56.172Z,30.33
2018-04-18T21:01:24.070Z,31.58
2018-04-18T21:03:52.004Z,29.42
2018-04-18T21:06:19.885Z,32.80
2018-04-18T21:08:47.783Z,31.27
2018-04-18T21:11:16.376Z,33.78
2018-04-18T21:13:44.192Z,30.73
2018-04-18T21:16:11.993Z,35.35
2018-04-18T21:18:39.752Z,34.00
2018-04-18T21:21:07.506Z,32.70
2018-04-18T21:23:35.317Z,35.00
2018-04-18T21:26:03.095Z,33.90
2018-04-18T21:28:30.858Z,38.30
2018-04-18T21:30:58.664Z,32.08
2018-04-18T21:33:26.420Z,32.15
2018-04-18T21:35:54.172Z,30.02
2018-04-18T21:38:21.996Z,31.40
2018-04-18T21:40:49.760Z,34.53
2018-04-18T21:43:17.517Z,37.63
2018-04-18T21:45:46.213Z,34.97
2018-04-18T21:48:13.977Z,32.08
2018-04-18T21:50:41.731Z,35.80
2018-04-18T21:53:09.544Z,33.78
2018-04-18T21:55:37.300Z,44.42
2018-04-18T21:58:05.069Z,44.30
2018-04-18T22:00:32.892Z,42.85
2018-04-18T22:03:00.656Z,43.75
2018-04-18T22:05:28.416Z,40.70
2018-04-18T22:07:56.226Z,43.58
2018-04-18T22:10:23.988Z,44.65
2018-04-18T22:12:51.757Z,44.78
2018-04-18T22:15:19.589Z,41.90
2018-04-18T22:17:47.380Z,41.55
2018-04-18T22:20:15.143Z,39.58
2018-04-18T22:22:42.979Z,38.65
2018-04-18T22:25:10.735Z,37.97
2018-04-18T22:27:38.484Z,40.03
2018-04-18T22:30:06.310Z,38.58
2018-04-18T22:32:34.842Z,40.28
2018-04-18T22:35:03.378Z,35.78
2018-04-18T22:37:31.181Z,37.95
2018-04-18T22:39:59.706Z,32.85
2018-04-18T22:42:28.241Z,36.95
2018-04-18T22:44:56.048Z,37.95
2018-04-18T22:47:24.580Z,35.05
2018-04-18T22:49:52.356Z,33.92
2018-04-18T22:52:20.167Z,34.63
2018-04-18T22:54:47.925Z,36.97
2018-04-18T22:57:16.466Z,36.83
2018-04-18T22:59:44.288Z,36.78
2018-04-18T23:02:12.043Z,38.63
2018-04-18T23:04:39.801Z,37.67
2018-04-18T23:07:07.626Z,39.30
2018-04-18T23:09:35.400Z,39.13
2018-04-18T23:12:03.925Z,42.53
2018-04-18T23:14:31.738Z,36.58
2018-04-18T23:16:59.503Z,39.63
2018-04-18T23:19:27.255Z,40.05
2018-04-18T23:21:55.085Z,37.72
2018-04-18T23:24:22.845Z,40.40
2018-04-18T23:26:50.614Z,44.13
2018-04-18T23:29:18.420Z,36.45
2018-04-18T23:31:46.931Z,37.50
2018-04-18T23:34:14.715Z,38.85
2018-04-18T23:36:42.917Z,34.15
2018-04-18T23:39:10.684Z,46.63
2018-04-18T23:41:38.443Z,47.47
2018-04-18T23:44:06.269Z,41.95
2018-04-18T23:46:34.031Z,40.88
2018-04-18T23:49:01.804Z,37.58
2018-04-18T23:51:29.625Z,40.60
2018-04-18T23:53:57.385Z,43.10
2018-04-18T23:56:25.157Z,42.72
2018-04-18T23:58:52.980Z,37.80
